Terminal Aerodrome Forecast
Issued by NWS Wilmington, OH

Current Version | Previous Version | Graphics & Text | Print | Product List | Glossary On
Versions: 1 2 3 4 5 6 7 8 9 10 11 12 13 14 15 16 17 18 19 20 21 22
578
FTUS41 KILN 220807 AAA
TAFDAY
TAF AMD
KDAY 220807Z 2208/2306 20007KT 4SM BR OVC018
     FM220900 18005KT 3SM BR OVC015
     FM221300 20004KT 3SM BR OVC008
     FM221600 20006KT 6SM BR BKN015
     FM221800 21007KT 6SM BR BKN025
     FM230300 20005KT P6SM BKN015=

USA.gov is the U.S. government's official web portal to all federal, state and local government web resources and services.